Flight Track Log - Related Links

Times and Time Zones

All times are in EDT time to prevent confusion due to time zone crossing. See the DAL6225 flight status page for this flight to view local times or setup timezone preferences in your user account.

Time Position Orientation Groundspeed Altitude Reporting Facility
EDT Latitude Longitude Course Direction KTS MPH feet Rate Location/Type
Tue 09:56:50 PM 40.7667 -73.8500 90° East 133 153 1,300  Level New York TRACON
Tue 09:57:50 PM 40.7667 -73.8000 90° East 184 212 3,900 2,905 Climbing New York TRACON
Tue 09:58:56 PM 40.8000 -73.8167 339° North 234 269 7,400 2,857 Climbing New York TRACON
Tue 09:59:56 PM 40.7833 -73.9000 255° West 245 282 9,900 2,000 Climbing New York TRACON
Tue 10:00:56 PM 40.7167 -73.9667 217° Southwest 324 373 11,400 778 Climbing New York TRACON
Tue 10:02:38 PM 40.5811 -74.1047 218° Southwest 384 442 12,000 778 Climbing New York Center
Tue 10:03:38 PM 40.4919 -74.1631 206° Southwest 373 429 13,500 1,700 Climbing New York Center
Tue 10:04:38 PM 40.3978 -74.1803 188° South 372 428 15,400 2,000 Climbing New York Center
Tue 10:05:38 PM 40.2761 -74.2042 189° South 394 453 17,500 1,714 Climbing New York Center
Tue 10:07:33 PM 40.0664 -74.2606 192° South 413 475 20,400 1,474 Climbing Washington Center
Tue 10:08:33 PM 39.9781 -74.3594 221° Southwest 390 449 21,800 1,412 Climbing Washington Center
Tue 10:09:32 PM 39.8872 -74.4611 221° Southwest 412 474 23,200 1,210 Climbing Washington Center
Tue 10:10:32 PM 39.7944 -74.5653 221° Southwest 434 499 24,200 1,041 Climbing Washington Center
Tue 10:11:33 PM 39.7017 -74.6692 221° Southwest 439 505 25,300 1,250 Climbing Washington Center
Tue 10:12:32 PM 39.6086 -74.7753 221° Southwest 446 513 26,700 1,150 Climbing Washington Center
Tue 10:13:33 PM 39.5133 -74.8761 219° Southwest 452 520 27,600 1,721 Climbing Washington Center
Tue 10:14:34 PM 39.4203 -74.9683 217° Southwest 452 520 30,200 1,714 Climbing Washington Center
Tue 10:15:32 PM 39.3142 -75.0336 205° Southwest 442 509 31,000 908 Climbing Washington Center
Tue 10:16:33 PM 39.2061 -75.1014 206° Southwest 436 502 32,000 1,328 Climbing Washington Center
Tue 10:17:34 PM 39.0981 -75.1636 204° Southwest 430 495 33,700 1,140 Climbing Washington Center
Tue 10:18:34 PM 38.9897 -75.2231 203° Southwest 425 489 34,300 1,169 Climbing Washington Center
Tue 10:19:32 PM 38.8836 -75.2983 209° Southwest 425 489 36,000 1,600 Climbing Washington Center
Tue 10:20:34 PM 38.7797 -75.3600 205° Southwest 419 482 37,500 1,000 Climbing Washington Center
Tue 10:21:32 PM 38.6756 -75.4242 206° Southwest 419 482 38,000 252 Climbing Washington Center
Tue 10:22:33 PM 38.5714 -75.4803 203° Southwest 419 482 38,000  Level Washington Center
Tue 10:23:32 PM 38.4608 -75.5467 205° Southwest 424 488 38,000  Level Washington Center
Tue 10:24:32 PM 38.3525 -75.6181 207° Southwest 429 494 38,000  Level Washington Center
Tue 10:25:33 PM 38.2397 -75.6764 202° Southwest 434 499 38,000  Level Washington Center
Tue 10:26:34 PM 38.1314 -75.7397 205° Southwest 434 499 38,000  Level Washington Center
Tue 10:27:34 PM 38.0375 -75.8053 209° Southwest 434 499 38,000  Level Washington Center
Tue 10:28:34 PM 37.9142 -75.8708 203° Southwest 434 499 38,000  Level Washington Center
Tue 10:29:33 PM 37.8036 -75.9333 204° Southwest 434 499 38,000  Level Washington Center
Tue 10:30:33 PM 37.7094 -75.9961 208° Southwest 434 499 38,000  Level Washington Center
Tue 10:31:34 PM 37.5967 -76.0611 205° Southwest 434 499 38,000  Level Washington Center
Tue 10:32:32 PM 37.4836 -76.1258 204° Southwest 444 511 38,000  Level Washington Center
Tue 10:33:31 PM 37.3561 -76.1928 203° Southwest 444 511 38,000  Level Washington Center
Tue 10:34:31 PM 37.2453 -76.2572 205° Southwest 444 511 38,000  Level Washington Center
Tue 10:35:33 PM 37.1303 -76.3214 204° Southwest 444 511 38,000 -146 Level Washington Center
Tue 10:36:34 PM 37.0192 -76.3853 205° Southwest 444 511 37,700 -706 Descending Washington Center
Tue 10:37:32 PM 36.9103 -76.4492 205° Southwest 444 511 36,600 -1,068 Descending Washington Center
Tue 10:38:32 PM 36.8078 -76.5075 204° Southwest 432 497 35,600 -836 Descending Washington Center
Tue 10:39:34 PM 36.7239 -76.5558 205° Southwest 421 484 34,900 -992 Descending Washington Center
Tue 10:40:33 PM 36.6042 -76.6294 206° Southwest 427 491 33,600 -1,513 Descending Washington Center
Tue 10:41:33 PM 36.4764 -76.7000 204° Southwest 450 518 31,900 -1,563 Descending Washington Center
Tue 10:42:32 PM 36.3611 -76.7656 205° Southwest 461 531 30,500 -1,412 Descending Washington Center
Tue 10:43:32 PM 36.2436 -76.8308 204° Southwest 461 531 29,100 -1,377 Descending Washington Center
Tue 10:44:34 PM 36.1322 -76.8908 204° Southwest 456 525 27,700 -1,377 Descending Washington Center
Tue 10:45:34 PM 36.0231 -76.9531 205° Southwest 445 512 26,300 -1,424 Descending Washington Center
Tue 10:46:32 PM 35.9139 -77.0103 203° Southwest 440 506 24,900 -1,412 Descending Washington Center
Tue 10:47:33 PM 35.8047 -77.0697 204° Southwest 435 501 23,500 -1,328 Descending Washington Center
Tue 10:48:34 PM 35.6933 -77.1342 205° Southwest 440 506 22,200 -1,350 Descending Washington Center
Tue 10:49:33 PM 35.5861 -77.1908 203° Southwest 435 501 20,800 -1,400 Descending Washington Center
Tue 10:50:34 PM 35.4811 -77.2525 206° Southwest 424 488 19,400 -1,475 Descending Washington Center
Tue 10:51:31 PM 35.3717 -77.3089 203° Southwest 424 488 17,900 -1,400 Descending Washington Center
Tue 10:52:34 PM 35.2644 -77.3675 204° Southwest 424 488 16,600 -1,220 Descending Washington Center
Tue 10:53:34 PM 35.1592 -77.4264 205° Southwest 424 488 15,400 -1,068 Descending Washington Center
Tue 10:54:32 PM 35.0667 -77.4750 203° Southwest 419 482 14,500 -1,059 Descending Washington Center
Tue 10:55:33 PM 34.9656 -77.5333 205° Southwest 413 475 13,300 -1,050 Descending Washington Center
Tue 10:56:32 PM 34.8606 -77.5867 203° Southwest 413 475 12,400 -1,059 Descending Washington Center
Tue 10:57:32 PM 34.7719 -77.6400 206° Southwest 391 450 11,200 -1,500 Descending Washington Center
Tue 10:58:32 PM 34.6919 -77.6733 199° South 344 396 9,400 -1,869 Descending Washington Center
Tue 10:59:34 PM 34.6128 -77.6739 180° South 298 343 7,400 -1,650 Descending Washington Center
Tue 11:00:32 PM 34.5314 -77.6769 182° South 298 343 6,100 -1,109 Descending Washington Center
Tue 11:01:33 PM 34.4519 -77.6775 180° South 293 337 5,200 -893 Descending Washington Center
Tue 11:02:33 PM 34.3789 -77.6806 182° South 281 323 4,300 -908 Descending Washington Center
Tue 11:03:32 PM 34.3058 -77.6814 181° South 275 316 3,400 -893 Descending Washington Center
Tue 11:04:34 PM 34.2308 -77.6819 180° South 275 316 2,500 -639 Descending Washington Center
Tue 11:05:34 PM 34.1536 -77.6850 182° South 275 316 2,100 -403 Descending Washington Center
Tue 11:06:33 PM 34.0983 -77.7411 220° Southwest 262 302 1,700 -202 Descending Washington Center
Tue 11:07:33 PM 34.0867 -77.8136 259° West 226 260 1,700  Level Washington Center
Tue 11:08:34 PM 34.1319 -77.8450 330° Northwest 137 158 1,700  Level Washington Center
Tue 11:09:34 PM 34.1775 -77.8636 341° North 137 158 1,700 -254 Level Washington Center
Tue 11:10:32 PM 34.2147 -77.8797 340° North 144 166 1,200 -610 Descending Washington Center
Tue 11:11:32 PM 34.2436 -77.8956 336° Northwest 132 152 500 -450 Descending Washington Center
Tue 11:12:32 PM 34.2786 -77.9167 334° Northwest 127 146 300 -200 Descending Washington Center
Tue 11:14:00 PM 34.2667 -77.9000 90° East  Level FlightAware Approximate

Login

Don't have an account? Register now (free) for customized features, flight alerts, and more!